This is the latest recevied weather packets stored in our database for station/object DC4XK-10. If no packets are shown the sender has not sent any weather packets the latest 10 day(s).
| Time | Temp. | Humidity | Pressure | Rain* | Wind** | Luminosity | Snow |
|---|---|---|---|---|---|---|---|
| 1777391931 | 14.44° C | 40% | 1025.9 hPa | 0 mm | 1.79 m/s, 19° | - | - |
| 1777391330 | 15° C | 43% | 1025.8 hPa | 0 mm | 0.89 m/s, 262° | - | - |
| 1777390731 | 15.56° C | 42% | 1025.8 hPa | 0 mm | 0.45 m/s, 33° | - | - |
| 1777390131 | 16.11° C | 39% | 1026 hPa | 0 mm | 2.24 m/s, 28° | - | - |
| 1777389531 | 15.56° C | 42% | 1025.8 hPa | 0 mm | 0 m/s | - | - |
| 1777388931 | 15.56° C | 40% | 1025.9 hPa | 0 mm | 1.79 m/s, 17° | - | - |
| 1777388331 | 15.56° C | 39% | 1026.2 hPa | 0 mm | 1.34 m/s, 13° | - | - |
| 1777387731 | 15.56° C | 38% | 1026.1 hPa | 0 mm | 1.34 m/s, 328° | - | - |
| 1777387132 | 15° C | 37% | 1025.9 hPa | 0 mm | 3.58 m/s, 21° | - | - |
| 1777386531 | 16.11° C | 37% | 1026.2 hPa | 0 mm | 0.45 m/s, 69° | - | - |
| 1777385931 | 15° C | 38% | 1026.2 hPa | 0 mm | 0.45 m/s, 64° | - | - |
| 1777385333 | 15° C | 40% | 1026.3 hPa | 0 mm | 0 m/s | - | - |
| 1777384731 | 16.11° C | 37% | 1026.2 hPa | 0 mm | 0 m/s | - | - |
| 1777384131 | 16.11° C | 40% | 1026.3 hPa | 0 mm | 0.45 m/s, 87° | - | - |
| 1777383534 | 16.67° C | 41% | 1026.5 hPa | 0 mm | 0.45 m/s, 25° | - | - |
| 1777382931 | 16.11° C | 41% | 1026.4 hPa | 0 mm | 0 m/s | - | - |
| 1777382331 | 16.11° C | 38% | 1026.1 hPa | 0 mm | 2.24 m/s, 31° | - | - |
| 1777381732 | 15° C | 41% | 1026.4 hPa | 0 mm | 0.89 m/s, 72° | - | - |
| 1777381131 | 16.11° C | 40% | 1026.5 hPa | 0 mm | 2.24 m/s, 321° | - | - |
| 1777380530 | 16.11° C | 40% | 1026.4 hPa | 0 mm | 1.34 m/s, 297° | - | - |
| 1777379931 | 16.11° C | 39% | 1026.3 hPa | 0 mm | 1.79 m/s, 342° | - | - |
| 1777379331 | 15.56° C | 41% | 1026.4 hPa | 0 mm | 1.34 m/s, 50° | - | - |
| 1777378730 | 16.11° C | 39% | 1026.4 hPa | 0 mm | 0.89 m/s, 23° | - | - |
| 1777378131 | 15.56° C | 39% | 1026.3 hPa | 0 mm | 1.79 m/s, 230° | - | - |
| 1777377531 | 15.56° C | 40% | 1026.4 hPa | 0 mm | 0 m/s | - | - |
* Rain latest hour (hover to see other rain measurements)
** Current wind speed in m/s (hover to see current wind gust speed)